Valders, Wisconsin
Current Conditions -  °F | °C
As of 6:14 PM on Monday 24 Nov 2014 (Local Time) from KMTW Reporting Station
Light Snow Light Snow  
Wind Chill: 23°   Ceiling: 600
Heat Index: 34°   Visibility: 1.2mi
Dew Point: 32°   Wind: 17mph
Humidity: 93%   Direction: 280°W
Pressure: 29.4"   Gusts: 22mph
Location:  44.07°N, 87.88°W
Report Text: KMTW 250014Z AUTO 28015G19KT 1 1/4SM -SN BR OVC006 01/00 A2940 RMK AO2 CIG 004V009 P0001 FZRANO
Loading
Personal Weather Stations






























Interactive Weather Map New forecast layout! Learn more

10-Day Weather Forecast

Advertisements
Track Severe Weather on mobile